EUS37SM EGJJ-LFBD
Flight info
| Callsign | EUS37SM |
|---|---|
| Flight time | 0h 52m |
| Altitude | 35000 |
| Route | REN DCT NTS DCT CNA |
| Aircraft | B738/M-SDE2E3FGHIRWXY/LB1 |
Departure
| Time | 2026-05-05 16:52 |
|---|---|
| Airport | Jersey Airport (EGJJ) |
Arrival
| Time | 2026-05-05 17:44 |
|---|---|
| Airport | Bordeaux–Mérignac Airport (LFBD) |
| Time | Latitude | Longitude | Altitude | Speed | Heading |
|---|---|---|---|---|---|
| 2026-05-05 16:12 | 49.20561 | -2.19699 | 283 ft | 0 kts | 174° |
| 2026-05-05 16:45 | 49.20564 | -2.19700 | 283 ft | 3 kts | 174° |
| 2026-05-05 16:45 | 49.20591 | -2.19700 | 288 ft | 4 kts | 187° |
| 2026-05-05 16:46 | 49.20617 | -2.19691 | 285 ft | 4 kts | 202° |
| 2026-05-05 16:46 | 49.20636 | -2.19677 | 285 ft | 0 kts | 212° |
| 2026-05-05 16:48 | 49.20629 | -2.19686 | 285 ft | 4 kts | 224° |
| 2026-05-05 16:48 | 49.20612 | -2.19766 | 283 ft | 11 kts | 263° |
| 2026-05-05 16:49 | 49.20602 | -2.19891 | 285 ft | 13 kts | 254° |
| 2026-05-05 16:49 | 49.20552 | -2.19931 | 283 ft | 8 kts | 181° |
| 2026-05-05 16:49 | 49.20522 | -2.19992 | 283 ft | 9 kts | 274° |
| 2026-05-05 16:49 | 49.20538 | -2.20090 | 288 ft | 10 kts | 288° |
| 2026-05-05 16:50 | 49.20561 | -2.20206 | 283 ft | 12 kts | 286° |
| 2026-05-05 16:50 | 49.20588 | -2.20341 | 283 ft | 14 kts | 287° |
| 2026-05-05 16:50 | 49.20617 | -2.20496 | 283 ft | 16 kts | 284° |
| 2026-05-05 16:50 | 49.20633 | -2.20666 | 283 ft | 13 kts | 289° |
| 2026-05-05 16:51 | 49.20704 | -2.20662 | 282 ft | 13 kts | 63° |
| 2026-05-05 16:51 | 49.20717 | -2.20527 | 282 ft | 13 kts | 83° |
| 2026-05-05 16:51 | 49.20761 | -2.20003 | 283 ft | 96 kts | 83° |
| 2026-05-05 16:51 | 49.20894 | -2.18609 | 404 ft | 157 kts | 75° |
| 2026-05-05 16:52 | 49.21020 | -2.17511 | 1026 ft | 161 kts | 75° |
| 2026-05-05 16:52 | 49.20932 | -2.15760 | 2074 ft | 172 kts | 109° |
| 2026-05-05 16:52 | 49.20118 | -2.14255 | 2796 ft | 205 kts | 141° |
| 2026-05-05 16:52 | 49.18675 | -2.13406 | 3178 ft | 243 kts | 169° |
| 2026-05-05 16:53 | 49.16862 | -2.13259 | 3488 ft | 271 kts | 175° |
| 2026-05-05 16:53 | 49.14986 | -2.12948 | 4429 ft | 278 kts | 167° |
| 2026-05-05 16:53 | 49.13066 | -2.12279 | 5328 ft | 286 kts | 164° |
| 2026-05-05 16:53 | 49.11146 | -2.11520 | 6424 ft | 287 kts | 164° |
| 2026-05-05 16:54 | 49.09207 | -2.10749 | 7442 ft | 290 kts | 164° |
| 2026-05-05 16:54 | 49.07247 | -2.09983 | 8466 ft | 292 kts | 163° |
| 2026-05-05 16:54 | 49.05266 | -2.09224 | 9534 ft | 293 kts | 163° |
| 2026-05-05 16:54 | 49.03276 | -2.08474 | 10465 ft | 299 kts | 163° |
| 2026-05-05 16:55 | 49.01167 | -2.07685 | 10784 ft | 326 kts | 164° |
| 2026-05-05 16:55 | 48.98881 | -2.06838 | 11193 ft | 346 kts | 164° |
| 2026-05-05 16:55 | 48.96517 | -2.05974 | 12021 ft | 352 kts | 164° |
| 2026-05-05 16:55 | 48.94129 | -2.05109 | 12980 ft | 354 kts | 164° |
| 2026-05-05 16:56 | 48.91726 | -2.04242 | 13895 ft | 357 kts | 165° |
| 2026-05-05 16:56 | 48.89295 | -2.03366 | 14689 ft | 361 kts | 164° |
| 2026-05-05 16:56 | 48.86837 | -2.02483 | 15490 ft | 365 kts | 164° |
| 2026-05-05 16:56 | 48.84355 | -2.01591 | 16303 ft | 369 kts | 164° |
| 2026-05-05 16:57 | 48.81847 | -2.00690 | 17103 ft | 372 kts | 165° |
| 2026-05-05 16:57 | 48.79314 | -1.99782 | 17900 ft | 376 kts | 165° |
| 2026-05-05 16:57 | 48.76766 | -1.98869 | 18606 ft | 380 kts | 165° |
| 2026-05-05 16:57 | 48.74169 | -1.97940 | 19272 ft | 384 kts | 165° |
| 2026-05-05 16:58 | 48.71559 | -1.97007 | 19956 ft | 387 kts | 165° |
| 2026-05-05 16:58 | 48.68924 | -1.96066 | 20631 ft | 390 kts | 165° |
| 2026-05-05 16:58 | 48.66269 | -1.95119 | 21278 ft | 394 kts | 165° |
| 2026-05-05 16:58 | 48.63586 | -1.94163 | 21902 ft | 398 kts | 165° |
| 2026-05-05 16:59 | 48.60880 | -1.93199 | 22533 ft | 402 kts | 165° |
| 2026-05-05 16:59 | 48.58152 | -1.92229 | 23148 ft | 405 kts | 165° |
| 2026-05-05 16:59 | 48.55395 | -1.91249 | 23700 ft | 409 kts | 165° |
| 2026-05-05 16:59 | 48.52614 | -1.90263 | 24220 ft | 412 kts | 165° |
| 2026-05-05 17:00 | 48.49821 | -1.89273 | 24766 ft | 413 kts | 165° |
| 2026-05-05 17:00 | 48.47009 | -1.88279 | 25267 ft | 416 kts | 165° |
| 2026-05-05 17:00 | 48.44183 | -1.87280 | 25806 ft | 418 kts | 165° |
| 2026-05-05 17:00 | 48.41340 | -1.86275 | 26339 ft | 421 kts | 164° |
| 2026-05-05 17:01 | 48.38479 | -1.85266 | 26792 ft | 424 kts | 164° |
| 2026-05-05 17:01 | 48.35596 | -1.84249 | 27274 ft | 427 kts | 164° |
| 2026-05-05 17:01 | 48.32689 | -1.83226 | 27774 ft | 428 kts | 164° |
| 2026-05-05 17:01 | 48.29778 | -1.82203 | 28241 ft | 430 kts | 164° |
| 2026-05-05 17:02 | 48.26853 | -1.81176 | 28676 ft | 433 kts | 164° |
| 2026-05-05 17:02 | 48.23913 | -1.80144 | 29104 ft | 435 kts | 164° |
| 2026-05-05 17:02 | 48.20959 | -1.79109 | 29549 ft | 437 kts | 164° |
| 2026-05-05 17:02 | 48.17990 | -1.78071 | 29967 ft | 439 kts | 163° |
| 2026-05-05 17:03 | 48.15015 | -1.77031 | 30410 ft | 438 kts | 164° |
| 2026-05-05 17:03 | 48.12057 | -1.75999 | 30971 ft | 434 kts | 164° |
| 2026-05-05 17:03 | 48.09169 | -1.74993 | 31576 ft | 430 kts | 164° |
| 2026-05-05 17:03 | 48.06212 | -1.74028 | 32129 ft | 429 kts | 168° |
| 2026-05-05 17:04 | 48.03250 | -1.73469 | 32613 ft | 429 kts | 172° |
| 2026-05-05 17:04 | 48.00284 | -1.73058 | 33080 ft | 427 kts | 173° |
| 2026-05-05 17:04 | 47.97328 | -1.72689 | 33559 ft | 426 kts | 173° |
| 2026-05-05 17:04 | 47.94377 | -1.72320 | 34003 ft | 424 kts | 173° |
| 2026-05-05 17:05 | 47.91440 | -1.71938 | 34321 ft | 425 kts | 173° |
| 2026-05-05 17:05 | 47.88489 | -1.71538 | 34558 ft | 427 kts | 173° |
| 2026-05-05 17:05 | 47.85531 | -1.71124 | 34832 ft | 428 kts | 173° |
| 2026-05-05 17:05 | 47.82601 | -1.70709 | 34889 ft | 430 kts | 173° |
| 2026-05-05 17:06 | 47.76657 | -1.69858 | 34896 ft | 429 kts | 173° |
| 2026-05-05 17:06 | 47.70695 | -1.69005 | 34908 ft | 432 kts | 173° |
| 2026-05-05 17:07 | 47.64703 | -1.68150 | 34910 ft | 434 kts | 173° |
| 2026-05-05 17:07 | 47.58673 | -1.67294 | 34896 ft | 436 kts | 173° |
| 2026-05-05 17:08 | 47.52637 | -1.66439 | 34884 ft | 436 kts | 173° |
| 2026-05-05 17:08 | 47.46589 | -1.65584 | 34897 ft | 436 kts | 173° |
| 2026-05-05 17:09 | 47.40542 | -1.64730 | 34886 ft | 436 kts | 173° |
| 2026-05-05 17:09 | 47.34508 | -1.63881 | 34888 ft | 435 kts | 173° |
| 2026-05-05 17:10 | 47.28486 | -1.63035 | 34877 ft | 434 kts | 173° |
| 2026-05-05 17:10 | 47.22491 | -1.62194 | 34886 ft | 432 kts | 173° |
| 2026-05-05 17:11 | 47.16584 | -1.60824 | 34890 ft | 429 kts | 162° |
| 2026-05-05 17:11 | 47.11219 | -1.57126 | 34890 ft | 426 kts | 148° |
| 2026-05-05 17:12 | 47.06168 | -1.52552 | 34881 ft | 427 kts | 148° |
| 2026-05-05 17:12 | 47.01122 | -1.47979 | 34883 ft | 427 kts | 148° |
| 2026-05-05 17:13 | 46.96052 | -1.43443 | 34891 ft | 427 kts | 148° |
| 2026-05-05 17:13 | 46.90961 | -1.38923 | 34894 ft | 429 kts | 148° |
| 2026-05-05 17:14 | 46.85838 | -1.34393 | 34880 ft | 431 kts | 148° |
| 2026-05-05 17:14 | 46.80706 | -1.29864 | 34893 ft | 431 kts | 148° |
| 2026-05-05 17:15 | 46.75564 | -1.25337 | 34887 ft | 431 kts | 148° |
| 2026-05-05 17:15 | 46.72994 | -1.23078 | 34697 ft | 434 kts | 148° |
| 2026-05-05 17:15 | 46.70399 | -1.20799 | 34171 ft | 435 kts | 148° |
| 2026-05-05 17:16 | 46.67809 | -1.18528 | 33506 ft | 434 kts | 148° |
| 2026-05-05 17:16 | 46.65231 | -1.16270 | 32998 ft | 430 kts | 147° |
| 2026-05-05 17:16 | 46.62683 | -1.14043 | 32488 ft | 425 kts | 147° |
| 2026-05-05 17:16 | 46.60201 | -1.11874 | 32061 ft | 420 kts | 146° |
| 2026-05-05 17:17 | 46.57707 | -1.09698 | 31592 ft | 416 kts | 146° |
| 2026-05-05 17:17 | 46.55239 | -1.07546 | 31185 ft | 412 kts | 145° |
| 2026-05-05 17:17 | 46.52794 | -1.05416 | 30721 ft | 408 kts | 144° |
| 2026-05-05 17:17 | 46.50362 | -1.03301 | 30290 ft | 404 kts | 144° |
| 2026-05-05 17:18 | 46.47960 | -1.01213 | 29832 ft | 401 kts | 143° |
| 2026-05-05 17:18 | 46.45581 | -0.99145 | 29334 ft | 397 kts | 144° |
| 2026-05-05 17:18 | 46.43228 | -0.97103 | 28894 ft | 391 kts | 144° |
| 2026-05-05 17:18 | 46.40906 | -0.95089 | 28440 ft | 387 kts | 144° |
| 2026-05-05 17:19 | 46.38579 | -0.93074 | 27994 ft | 382 kts | 144° |
| 2026-05-05 17:19 | 46.36337 | -0.91134 | 27580 ft | 378 kts | 146° |
| 2026-05-05 17:19 | 46.34088 | -0.89188 | 27131 ft | 376 kts | 146° |
| 2026-05-05 17:19 | 46.31852 | -0.87256 | 26694 ft | 373 kts | 146° |
| 2026-05-05 17:20 | 46.29636 | -0.85344 | 26268 ft | 370 kts | 146° |
| 2026-05-05 17:20 | 46.27435 | -0.83445 | 25845 ft | 367 kts | 147° |
| 2026-05-05 17:20 | 46.25249 | -0.81563 | 25435 ft | 364 kts | 147° |
| 2026-05-05 17:20 | 46.23077 | -0.79694 | 25021 ft | 362 kts | 147° |
| 2026-05-05 17:21 | 46.20921 | -0.77842 | 24617 ft | 360 kts | 147° |
| 2026-05-05 17:21 | 46.18779 | -0.76002 | 24218 ft | 357 kts | 147° |
| 2026-05-05 17:21 | 46.16651 | -0.74177 | 23810 ft | 355 kts | 147° |
| 2026-05-05 17:22 | 46.12436 | -0.70565 | 22928 ft | 351 kts | 148° |
| 2026-05-05 17:22 | 46.10337 | -0.68768 | 22503 ft | 348 kts | 148° |
| 2026-05-05 17:22 | 46.08266 | -0.66997 | 22096 ft | 345 kts | 148° |
| 2026-05-05 17:22 | 46.06211 | -0.65241 | 21688 ft | 342 kts | 148° |
| 2026-05-05 17:23 | 46.04168 | -0.63498 | 21274 ft | 340 kts | 149° |
| 2026-05-05 17:23 | 46.02138 | -0.61768 | 20880 ft | 338 kts | 149° |
| 2026-05-05 17:23 | 46.00124 | -0.60052 | 20491 ft | 336 kts | 149° |
| 2026-05-05 17:23 | 45.98110 | -0.58338 | 20097 ft | 334 kts | 149° |
| 2026-05-05 17:24 | 45.96115 | -0.56640 | 19724 ft | 332 kts | 149° |
| 2026-05-05 17:24 | 45.94131 | -0.54953 | 19345 ft | 330 kts | 150° |
| 2026-05-05 17:24 | 45.92162 | -0.53280 | 18957 ft | 328 kts | 150° |
| 2026-05-05 17:24 | 45.90408 | -0.51792 | 18624 ft | 327 kts | 150° |
| 2026-05-05 17:25 | 45.87794 | -0.49578 | 18108 ft | 326 kts | 150° |
| 2026-05-05 17:25 | 45.85854 | -0.47938 | 17674 ft | 324 kts | 150° |
| 2026-05-05 17:26 | 45.83916 | -0.46299 | 17267 ft | 322 kts | 150° |
| 2026-05-05 17:26 | 45.83396 | -0.45858 | 17169 ft | 322 kts | 150° |
| 2026-05-05 17:26 | 45.82135 | -0.44795 | 16932 ft | 320 kts | 150° |
| 2026-05-05 17:26 | 45.80226 | -0.43183 | 16554 ft | 317 kts | 150° |
| 2026-05-05 17:27 | 45.78330 | -0.41582 | 16163 ft | 316 kts | 150° |
| 2026-05-05 17:27 | 45.76444 | -0.39990 | 15802 ft | 314 kts | 151° |
| 2026-05-05 17:27 | 45.74562 | -0.38403 | 15434 ft | 314 kts | 151° |
| 2026-05-05 17:27 | 45.72683 | -0.36819 | 15068 ft | 313 kts | 152° |
| 2026-05-05 17:28 | 45.70791 | -0.35227 | 14696 ft | 313 kts | 152° |
| 2026-05-05 17:28 | 45.68920 | -0.33655 | 14336 ft | 314 kts | 151° |
| 2026-05-05 17:28 | 45.67027 | -0.32066 | 13960 ft | 314 kts | 152° |
| 2026-05-05 17:28 | 45.65029 | -0.30941 | 13532 ft | 311 kts | 172° |
| 2026-05-05 17:29 | 45.62896 | -0.30578 | 13153 ft | 308 kts | 175° |
| 2026-05-05 17:29 | 45.60759 | -0.30263 | 12763 ft | 307 kts | 176° |
| 2026-05-05 17:29 | 45.58638 | -0.29946 | 12390 ft | 306 kts | 175° |
| 2026-05-05 17:29 | 45.56517 | -0.29616 | 12009 ft | 305 kts | 175° |
| 2026-05-05 17:30 | 45.54426 | -0.29281 | 11648 ft | 303 kts | 176° |
| 2026-05-05 17:30 | 45.52328 | -0.28938 | 11297 ft | 302 kts | 175° |
| 2026-05-05 17:30 | 45.50255 | -0.28597 | 10943 ft | 300 kts | 175° |
| 2026-05-05 17:30 | 45.48175 | -0.28254 | 10586 ft | 299 kts | 175° |
| 2026-05-05 17:31 | 45.46129 | -0.27917 | 10334 ft | 295 kts | 175° |
| 2026-05-05 17:31 | 45.44139 | -0.27591 | 10177 ft | 287 kts | 175° |
| 2026-05-05 17:31 | 45.42186 | -0.27273 | 10044 ft | 279 kts | 175° |
| 2026-05-05 17:31 | 45.40284 | -0.26962 | 9918 ft | 272 kts | 176° |
| 2026-05-05 17:32 | 45.38412 | -0.26658 | 9630 ft | 270 kts | 176° |
| 2026-05-05 17:32 | 45.36547 | -0.26356 | 9348 ft | 269 kts | 176° |
| 2026-05-05 17:32 | 45.34696 | -0.26056 | 9061 ft | 267 kts | 175° |
| 2026-05-05 17:32 | 45.32844 | -0.25755 | 8788 ft | 266 kts | 176° |
| 2026-05-05 17:33 | 45.31010 | -0.25458 | 8517 ft | 265 kts | 175° |
| 2026-05-05 17:33 | 45.29182 | -0.25162 | 8242 ft | 264 kts | 175° |
| 2026-05-05 17:33 | 45.27359 | -0.24866 | 7967 ft | 264 kts | 176° |
| 2026-05-05 17:33 | 45.25532 | -0.24570 | 7684 ft | 264 kts | 175° |
| 2026-05-05 17:34 | 45.23723 | -0.24276 | 7423 ft | 262 kts | 176° |
| 2026-05-05 17:34 | 45.21915 | -0.23985 | 7154 ft | 261 kts | 175° |
| 2026-05-05 17:34 | 45.20116 | -0.23695 | 6891 ft | 260 kts | 176° |
| 2026-05-05 17:34 | 45.18324 | -0.23417 | 6629 ft | 258 kts | 179° |
| 2026-05-05 17:35 | 45.16597 | -0.23885 | 6330 ft | 251 kts | 212° |
| 2026-05-05 17:35 | 45.15243 | -0.25367 | 6099 ft | 245 kts | 226° |
| 2026-05-05 17:35 | 45.14057 | -0.27090 | 5823 ft | 244 kts | 229° |
| 2026-05-05 17:35 | 45.12878 | -0.28793 | 5550 ft | 243 kts | 226° |
| 2026-05-05 17:36 | 45.11668 | -0.30467 | 5300 ft | 243 kts | 226° |
| 2026-05-05 17:36 | 45.10476 | -0.32121 | 5145 ft | 239 kts | 226° |
| 2026-05-05 17:36 | 45.09299 | -0.33777 | 4983 ft | 235 kts | 227° |
| 2026-05-05 17:36 | 45.08146 | -0.35412 | 4757 ft | 234 kts | 227° |
| 2026-05-05 17:37 | 45.06996 | -0.37050 | 4534 ft | 234 kts | 227° |
| 2026-05-05 17:37 | 45.06242 | -0.38125 | 4377 ft | 234 kts | 228° |
| 2026-05-05 17:37 | 45.04711 | -0.40310 | 4106 ft | 231 kts | 227° |
| 2026-05-05 17:37 | 45.03601 | -0.41891 | 3892 ft | 222 kts | 227° |
| 2026-05-05 17:38 | 45.02534 | -0.43414 | 3657 ft | 214 kts | 227° |
| 2026-05-05 17:38 | 45.01835 | -0.44409 | 3528 ft | 209 kts | 228° |
| 2026-05-05 17:38 | 45.00836 | -0.45835 | 3327 ft | 201 kts | 228° |
| 2026-05-05 17:38 | 44.99869 | -0.47217 | 3157 ft | 193 kts | 228° |
| 2026-05-05 17:39 | 44.98946 | -0.48532 | 3035 ft | 183 kts | 229° |
| 2026-05-05 17:39 | 44.98063 | -0.49794 | 3012 ft | 179 kts | 228° |
| 2026-05-05 17:39 | 44.97196 | -0.51034 | 3027 ft | 175 kts | 229° |
| 2026-05-05 17:39 | 44.96368 | -0.52216 | 3007 ft | 163 kts | 229° |
| 2026-05-05 17:40 | 44.95590 | -0.53328 | 3027 ft | 161 kts | 229° |
| 2026-05-05 17:40 | 44.94805 | -0.54450 | 3012 ft | 158 kts | 229° |
| 2026-05-05 17:40 | 44.94035 | -0.55552 | 2988 ft | 160 kts | 229° |
| 2026-05-05 17:40 | 44.93247 | -0.56680 | 2806 ft | 160 kts | 228° |
| 2026-05-05 17:41 | 44.92475 | -0.57781 | 2589 ft | 157 kts | 229° |
| 2026-05-05 17:41 | 44.91708 | -0.58880 | 2390 ft | 157 kts | 229° |
| 2026-05-05 17:41 | 44.90951 | -0.59961 | 2196 ft | 150 kts | 229° |
| 2026-05-05 17:41 | 44.90233 | -0.60984 | 1911 ft | 146 kts | 228° |
| 2026-05-05 17:42 | 44.89492 | -0.62040 | 1736 ft | 147 kts | 228° |
| 2026-05-05 17:42 | 44.88786 | -0.63047 | 1437 ft | 145 kts | 229° |
| 2026-05-05 17:42 | 44.88102 | -0.64034 | 1347 ft | 137 kts | 228° |
| 2026-05-05 17:42 | 44.87424 | -0.65002 | 1106 ft | 141 kts | 229° |
| 2026-05-05 17:43 | 44.86722 | -0.66006 | 1036 ft | 140 kts | 227° |
| 2026-05-05 17:43 | 44.86036 | -0.66986 | 784 ft | 138 kts | 227° |
| 2026-05-05 17:43 | 44.85358 | -0.67959 | 534 ft | 140 kts | 230° |
| 2026-05-05 17:43 | 44.84705 | -0.68903 | 355 ft | 133 kts | 227° |
| 2026-05-05 17:44 | 44.84058 | -0.69838 | 238 ft | 132 kts | 229° |
| 2026-05-05 17:44 | 44.83423 | -0.70748 | 171 ft | 126 kts | 228° |
| 2026-05-05 17:44 | 44.82901 | -0.71488 | 169 ft | 84 kts | 225° |
| 2026-05-05 17:44 | 44.82599 | -0.71921 | 171 ft | 40 kts | 224° |
| 2026-05-05 17:45 | 44.82413 | -0.72186 | 170 ft | 39 kts | 226° |
| 2026-05-05 17:45 | 44.82226 | -0.72449 | 171 ft | 36 kts | 225° |
| 2026-05-05 17:45 | 44.82141 | -0.72481 | 172 ft | 15 kts | 158° |
| 2026-05-05 17:45 | 44.82084 | -0.72358 | 171 ft | 16 kts | 90° |
| 2026-05-05 17:46 | 44.82105 | -0.72193 | 171 ft | 18 kts | 65° |
| 2026-05-05 17:46 | 44.82206 | -0.72025 | 170 ft | 27 kts | 45° |
| 2026-05-05 17:46 | 44.82345 | -0.71827 | 170 ft | 29 kts | 46° |
| 2026-05-05 17:46 | 44.82482 | -0.71632 | 170 ft | 27 kts | 47° |
| 2026-05-05 17:47 | 44.82609 | -0.71445 | 170 ft | 26 kts | 45° |
| 2026-05-05 17:47 | 44.82732 | -0.71273 | 169 ft | 26 kts | 44° |
| 2026-05-05 17:47 | 44.82863 | -0.71089 | 169 ft | 26 kts | 45° |
| 2026-05-05 17:47 | 44.82984 | -0.70913 | 169 ft | 25 kts | 46° |
| 2026-05-05 17:48 | 44.83111 | -0.70733 | 169 ft | 26 kts | 44° |
| 2026-05-05 17:48 | 44.83179 | -0.70638 | 168 ft | 10 kts | 44° |
| 2026-05-05 17:48 | 44.83197 | -0.70546 | 168 ft | 9 kts | 115° |
| 2026-05-05 17:48 | 44.83169 | -0.70542 | 169 ft | 5 kts | 206° |
| 2026-05-05 17:49 | 44.83127 | -0.70593 | 169 ft | 11 kts | 226° |
| 2026-05-05 17:49 | 44.83081 | -0.70619 | 169 ft | 6 kts | 156° |
| 2026-05-05 17:49 | 44.83053 | -0.70570 | 169 ft | 8 kts | 131° |
| 2026-05-05 17:49 | 44.83043 | -0.70558 | 169 ft | 0 kts | 138° |